Auburn, MI (48611)

5:07 AM EDT on September 26, 2016 (GMT -0400)
APRSWXNET | | Change Station

Elev 617 ft 43.60 °N, 84.10 °W | Updated 22 minutes ago

Mostly Cloudy
Mostly Cloudy
59 °F
Feels Like 59 °F
N
0
Wind Variable Wind from South
Gusts 0.0 mph

Today
High -- | Low -- °F
--% Chance of Precip.
Yesterday
High -- | Low -- °F
Precip. -- in
Pressure 29.83 in
Visibility 7.0 miles
Clouds Scattered Clouds 2500 ft
Mostly Cloudy 3300 ft
Mostly Cloudy 8500 ft
Dew Point 58 °F
Humidity 95%
Rainfall in
Snow Depth Not available.
7:28 AM 7:25 PM
Waning Crescent, 20% visible
METAR KMBS 260853Z 23004KT 7SM SCT025 BKN033 BKN085 16/14 A2984 RMK AO2 SLP102 60000 T01610144 58015
Pressure 29.83 in
Visibility 7.0 miles
Clouds Scattered Clouds 2500 ft
Mostly Cloudy 3300 ft
Mostly Cloudy 8500 ft
Dew Point 58 °F
Humidity 95%
Rainfall in
Snow Depth Not available.
7:28 AM 7:25 PM
Waning Crescent, 20% visible
METAR KMBS 260853Z 23004KT 7SM SCT025 BKN033 BKN085 16/14 A2984 RMK AO2 SLP102 60000 T01610144 58015

10-Day Weather Forecast

Almanac

Astronomy

Sep. 26, 2016 Rise Set
Actual Time
Civil Twilight
Nautical Twilight
Astronomical Twilight
Moon
Length of Visible Light
Length of Day
Tomorrow will be .
, % of the Moon is Illuminated

Today's Extremes

State Highs State Lows

Community

WunderPhotos

Upload Photos

1,941,852 photos uploaded!

WunderBlog® & News

Nearby

Air Quality

  Air Quality AQ Index Pollutant
Not available.

Snow Depth

Station Depth Elevation

Earthquake Activity

City Distance Mag. Time & Date
Minimum magnitude displayed is 2.5.

Coastal Water Temperatures

Place Temperature

Stations

Nearby Weather Stations

Station Location Temp. Windchill Dew Point Humidity Wind Precip. Elev Updated Type
                   

Watches & Warnings

There are currently no watches in effect.